createdAt,value
2018-05-08T00:00:30.411Z,101455.23
2018-05-08T00:02:58.404Z,101452.60
2018-05-08T00:05:25.978Z,101450.55
2018-05-08T00:07:53.556Z,101446.02
2018-05-08T00:10:21.207Z,101449.34
2018-05-08T00:12:49.058Z,101442.02
2018-05-08T00:15:16.987Z,101443.28
2018-05-08T00:17:44.843Z,101441.94
2018-05-08T00:20:12.480Z,101444.95
2018-05-08T00:22:40.304Z,101451.33
2018-05-08T00:25:07.968Z,101447.00
2018-05-08T00:27:35.599Z,101440.02
2018-05-08T00:30:03.606Z,101440.94
2018-05-08T00:32:31.160Z,101440.38
2018-05-08T00:34:58.730Z,101437.30
2018-05-08T00:37:26.311Z,101442.46
2018-05-08T00:39:53.936Z,101437.48
2018-05-08T00:42:21.640Z,101437.75
2018-05-08T00:44:49.506Z,101436.20
2018-05-08T00:47:17.058Z,101434.52
2018-05-08T00:49:44.648Z,101431.09
2018-05-08T00:52:12.420Z,101432.39
2018-05-08T00:54:51.831Z,101429.81
2018-05-08T00:57:19.858Z,101422.66
2018-05-08T00:59:47.656Z,101418.74
2018-05-08T01:02:15.215Z,101421.91
2018-05-08T01:04:42.822Z,101415.43
2018-05-08T01:07:10.466Z,101410.63
2018-05-08T01:09:38.243Z,101412.60
2018-05-08T01:12:06.040Z,101406.19
2018-05-08T01:14:33.594Z,101408.46
2018-05-08T01:17:01.299Z,101407.77
2018-05-08T01:19:28.819Z,101411.52
2018-05-08T01:21:56.411Z,101405.81
2018-05-08T01:24:23.991Z,101403.92
2018-05-08T01:26:51.623Z,101399.73
2018-05-08T01:29:19.216Z,101400.24
2018-05-08T01:31:46.770Z,101397.77
2018-05-08T01:34:14.343Z,101390.38
2018-05-08T01:36:41.996Z,101395.73
2018-05-08T01:39:09.613Z,101388.41
2018-05-08T01:41:37.246Z,101387.70
2018-05-08T01:44:04.866Z,101388.59
2018-05-08T01:46:32.559Z,101386.82
2018-05-08T01:49:00.161Z,101378.62
2018-05-08T01:51:27.707Z,101382.39
2018-05-08T01:53:55.547Z,101383.75
2018-05-08T01:56:23.134Z,101379.41
2018-05-08T01:58:50.731Z,101372.11
2018-05-08T02:01:18.379Z,101374.20
2018-05-08T02:03:46.047Z,101367.61
2018-05-08T02:06:13.715Z,101369.08
2018-05-08T02:08:41.440Z,101361.30
2018-05-08T02:11:09.356Z,101362.92
2018-05-08T02:13:36.911Z,101354.97
2018-05-08T02:16:04.486Z,101349.13
2018-05-08T02:18:32.209Z,101349.77
2018-05-08T02:21:00.066Z,101344.02
2018-05-08T02:23:27.858Z,101347.80
2018-05-08T02:25:55.839Z,101337.86
2018-05-08T02:28:23.375Z,101333.02
2018-05-08T02:30:50.987Z,101329.75
2018-05-08T02:33:18.958Z,101330.17
2018-05-08T02:35:46.726Z,101332.67
2018-05-08T02:38:14.282Z,101333.58
2018-05-08T02:40:42.115Z,101331.15
2018-05-08T02:43:10.145Z,101330.20
2018-05-08T02:45:37.691Z,101331.41
2018-05-08T02:48:05.251Z,101332.64
2018-05-08T02:50:32.873Z,101328.71
2018-05-08T02:53:00.488Z,101321.97
2018-05-08T02:55:28.060Z,101329.92
2018-05-08T02:57:55.964Z,101330.58
2018-05-08T03:00:23.573Z,101329.71
2018-05-08T03:02:52.164Z,101324.17
2018-05-08T03:05:19.787Z,101317.59
2018-05-08T03:07:47.830Z,101321.69
2018-05-08T03:10:15.396Z,101321.23
2018-05-08T03:12:42.956Z,101318.66
2018-05-08T03:15:10.539Z,101324.26
2018-05-08T03:17:38.553Z,101322.19
2018-05-08T03:20:06.165Z,101323.30
2018-05-08T03:22:33.729Z,101321.31
2018-05-08T03:25:01.284Z,101322.43
2018-05-08T03:27:28.974Z,101318.30
2018-05-08T03:29:56.553Z,101318.50
2018-05-08T03:32:25.513Z,101326.06
2018-05-08T03:34:53.694Z,101319.51
2018-05-08T03:37:21.793Z,101315.20
2018-05-08T03:39:49.864Z,101314.63
2018-05-08T03:42:17.987Z,101313.83
2018-05-08T03:44:45.641Z,101312.77
2018-05-08T03:47:13.220Z,101311.64
2018-05-08T03:49:40.886Z,101309.08
2018-05-08T03:52:08.820Z,101311.02
2018-05-08T03:54:36.455Z,101309.81
2018-05-08T03:57:04.011Z,101313.42
2018-05-08T03:59:31.705Z,101304.36
2018-05-08T04:02:11.212Z,101301.22
2018-05-08T04:04:50.844Z,101300.92
2018-05-08T04:07:31.247Z,101304.36
2018-05-08T04:09:59.243Z,101302.99
2018-05-08T04:12:27.033Z,101299.63
2018-05-08T04:14:54.609Z,101302.03
2018-05-08T04:17:22.502Z,101294.67
2018-05-08T04:19:50.077Z,101294.50
2018-05-08T04:22:17.669Z,101288.39
2018-05-08T04:24:45.255Z,101286.23
2018-05-08T04:27:12.826Z,101284.70
2018-05-08T04:29:40.388Z,101286.56
2018-05-08T04:32:08.249Z,101285.82
2018-05-08T04:34:35.915Z,101278.84
2018-05-08T04:37:03.517Z,101281.40
2018-05-08T04:39:31.117Z,101281.31
2018-05-08T04:41:58.757Z,101279.08
2018-05-08T04:44:26.816Z,101276.98
2018-05-08T04:46:55.050Z,101270.56
2018-05-08T04:49:22.907Z,101269.73
2018-05-08T04:51:50.930Z,101266.59
2018-05-08T04:54:18.972Z,101268.64
2018-05-08T04:56:47.475Z,101267.90
2018-05-08T04:59:15.771Z,101264.67
2018-05-08T05:01:44.090Z,101270.20
2018-05-08T05:04:12.119Z,101269.20
2018-05-08T05:06:39.717Z,101263.65
2018-05-08T05:09:07.296Z,101261.61
2018-05-08T05:11:35.000Z,101264.70
2018-05-08T05:14:02.607Z,101260.50
2018-05-08T05:16:30.183Z,101265.45
2018-05-08T05:18:57.980Z,101261.32
2018-05-08T05:21:25.585Z,101256.84
2018-05-08T05:23:53.149Z,101253.61
2018-05-08T05:26:20.727Z,101258.05
2018-05-08T05:28:48.316Z,101255.32
2018-05-08T05:31:16.283Z,101262.39
2018-05-08T05:33:43.855Z,101256.02
2018-05-08T05:36:12.175Z,101255.84
2018-05-08T05:38:39.813Z,101259.89
2018-05-08T05:41:07.405Z,101258.02
2018-05-08T05:43:35.104Z,101255.39
2018-05-08T05:46:02.732Z,101256.42
2018-05-08T05:48:30.409Z,101260.50
2018-05-08T05:50:58.051Z,101253.92
2018-05-08T05:53:25.724Z,101255.97
2018-05-08T05:55:53.576Z,101254.20
2018-05-08T05:58:21.136Z,101257.36
2018-05-08T06:00:48.871Z,101254.72
2018-05-08T06:03:16.549Z,101257.37
2018-05-08T06:05:44.505Z,101249.50
2018-05-08T06:08:12.159Z,101245.14
2018-05-08T06:10:39.785Z,101247.25
2018-05-08T06:13:07.444Z,101247.66
2018-05-08T06:15:35.097Z,101247.98
2018-05-08T06:18:02.673Z,101237.91
2018-05-08T06:20:30.478Z,101234.38
2018-05-08T06:22:58.019Z,101234.95
2018-05-08T06:25:25.880Z,101236.77
2018-05-08T06:27:53.569Z,101234.39
2018-05-08T06:30:21.135Z,101232.88
2018-05-08T06:32:48.702Z,101228.86
2018-05-08T06:35:16.707Z,101228.39
2018-05-08T06:37:44.376Z,101227.42
2018-05-08T06:40:11.946Z,101226.31
2018-05-08T06:42:39.957Z,101226.07
2018-05-08T06:45:07.525Z,101225.14
2018-05-08T06:47:35.186Z,101225.95
2018-05-08T06:50:03.093Z,101217.98
2018-05-08T06:52:30.715Z,101210.72
2018-05-08T06:54:58.553Z,101221.05
2018-05-08T06:57:26.148Z,101217.64
2018-05-08T06:59:53.745Z,101217.73
2018-05-08T07:02:21.488Z,101223.37
2018-05-08T07:04:49.069Z,101219.35
2018-05-08T07:07:16.897Z,101220.41
2018-05-08T07:09:44.768Z,101217.72
2018-05-08T07:12:12.383Z,101211.33
2018-05-08T07:14:40.036Z,101211.74
2018-05-08T07:17:07.880Z,101214.69
2018-05-08T07:19:35.457Z,101211.59
2018-05-08T07:22:03.085Z,101217.17
2018-05-08T07:24:30.762Z,101212.84
2018-05-08T07:26:58.727Z,101217.11
2018-05-08T07:29:26.532Z,101225.02
2018-05-08T07:31:54.416Z,101216.53
2018-05-08T07:34:21.988Z,101218.79
2018-05-08T07:36:49.873Z,101207.22
2018-05-08T07:39:17.706Z,101213.08
2018-05-08T07:41:45.278Z,101207.67
2018-05-08T07:44:12.856Z,101203.00
2018-05-08T07:46:40.551Z,101204.22
2018-05-08T07:49:08.560Z,101207.55
2018-05-08T07:51:36.162Z,101197.79
2018-05-08T07:54:03.717Z,101202.67
2018-05-08T07:56:31.313Z,101201.93
2018-05-08T07:58:58.871Z,101203.09
2018-05-08T08:01:26.540Z,101200.80
2018-05-08T08:03:54.127Z,101197.58
2018-05-08T08:06:21.676Z,101203.21
2018-05-08T08:08:49.499Z,101194.98
2018-05-08T08:11:17.141Z,101188.98
2018-05-08T08:13:44.916Z,101194.58
2018-05-08T08:16:12.474Z,101189.95
2018-05-08T08:18:40.084Z,101186.31
2018-05-08T08:21:07.727Z,101189.55
2018-05-08T08:23:35.365Z,101186.42
2018-05-08T08:26:02.956Z,101185.28
2018-05-08T08:28:30.541Z,101185.34
2018-05-08T08:30:58.133Z,101175.28
2018-05-08T08:33:25.786Z,101176.95
2018-05-08T08:35:53.368Z,101179.58
2018-05-08T08:38:21.197Z,101183.00
2018-05-08T08:40:48.830Z,101172.72
2018-05-08T08:43:16.401Z,101177.48
2018-05-08T08:45:44.034Z,101167.59
2018-05-08T08:48:11.636Z,101171.78
2018-05-08T08:50:39.204Z,101171.97
2018-05-08T08:53:06.805Z,101165.45
2018-05-08T08:55:34.780Z,101163.70
2018-05-08T08:58:02.403Z,101163.33
2018-05-08T09:00:29.999Z,101163.91
2018-05-08T09:02:57.565Z,101166.13
2018-05-08T09:05:25.261Z,101157.73
2018-05-08T09:07:52.838Z,101159.06
2018-05-08T09:10:20.444Z,101155.24
2018-05-08T09:12:48.293Z,101154.41
2018-05-08T09:15:15.887Z,101142.00
2018-05-08T09:17:43.520Z,101143.11
2018-05-08T09:20:11.114Z,101141.04
2018-05-08T09:22:38.729Z,101136.16
2018-05-08T09:25:06.531Z,101134.56
2018-05-08T09:27:34.798Z,101130.42
2018-05-08T09:30:02.381Z,101128.97
2018-05-08T09:32:30.012Z,101122.75
2018-05-08T09:34:57.947Z,101118.35
2018-05-08T09:37:25.533Z,101118.29
2018-05-08T09:39:53.188Z,101114.28
2018-05-08T09:42:20.791Z,101113.33
2018-05-08T09:44:48.412Z,101107.05
2018-05-08T09:47:16.016Z,101109.86
2018-05-08T09:49:43.969Z,101100.94
2018-05-08T09:52:12.219Z,101100.16
2018-05-08T09:54:39.808Z,101091.88
2018-05-08T09:57:07.429Z,101089.73
2018-05-08T09:59:35.033Z,101085.61
2018-05-08T10:02:02.686Z,101084.30
2018-05-08T10:04:30.246Z,101081.72
2018-05-08T10:06:57.815Z,101069.69
2018-05-08T10:09:25.470Z,101071.65
2018-05-08T10:11:53.556Z,101067.37
2018-05-08T10:14:21.141Z,101067.92
2018-05-08T10:16:48.782Z,101064.24
2018-05-08T10:19:16.367Z,101059.59
2018-05-08T10:21:43.993Z,101058.30
2018-05-08T10:24:11.967Z,101048.48
2018-05-08T10:26:39.559Z,101044.72
2018-05-08T10:29:07.131Z,101050.70
2018-05-08T10:31:34.781Z,101039.01
2018-05-08T10:34:02.566Z,101035.45
2018-05-08T10:36:30.158Z,101031.83
2018-05-08T10:38:57.728Z,101040.16
2018-05-08T10:41:25.474Z,101026.86
2018-05-08T10:43:53.052Z,101015.66
2018-05-08T10:46:20.696Z,101023.68
2018-05-08T10:48:48.584Z,101033.45
2018-05-08T10:51:16.184Z,101021.76
2018-05-08T10:53:44.140Z,101006.20
2018-05-08T10:56:11.699Z,101008.51
2018-05-08T10:58:39.354Z,101010.77
2018-05-08T11:01:06.984Z,101004.34
2018-05-08T11:03:34.788Z,101001.05
2018-05-08T11:06:03.031Z,100995.16
2018-05-08T11:08:30.577Z,101004.12
2018-05-08T11:10:58.142Z,100989.23
2018-05-08T11:13:26.130Z,100988.47
2018-05-08T11:15:53.722Z,100990.63
2018-05-08T11:18:21.283Z,100990.25
2018-05-08T11:20:49.289Z,100979.35
2018-05-08T11:23:16.906Z,100979.74
2018-05-08T11:25:44.457Z,100976.84
2018-05-08T11:28:12.063Z,100972.06
2018-05-08T11:30:39.752Z,100972.21
2018-05-08T11:33:07.302Z,100963.82
2018-05-08T11:35:34.887Z,100976.77
2018-05-08T11:38:02.460Z,100965.02
2018-05-08T11:40:30.052Z,100955.86
2018-05-08T11:42:57.724Z,100954.68
2018-05-08T11:45:25.288Z,100953.55
2018-05-08T11:47:52.984Z,100953.91
2018-05-08T11:50:20.538Z,100950.52
2018-05-08T11:52:48.134Z,100948.80
2018-05-08T11:55:15.827Z,100949.22
2018-05-08T11:57:43.417Z,100945.98
2018-05-08T12:00:11.120Z,100935.11
2018-05-08T12:02:38.837Z,100939.05
2018-05-08T12:05:06.332Z,100933.30
2018-05-08T12:07:33.907Z,100934.70
2018-05-08T12:10:01.521Z,100932.58
2018-05-08T12:12:29.076Z,100931.48
2018-05-08T12:14:56.734Z,100930.36
2018-05-08T12:17:24.298Z,100922.05
2018-05-08T12:19:52.091Z,100923.58
2018-05-08T12:22:19.679Z,100926.59
2018-05-08T12:24:47.236Z,100929.08
2018-05-08T12:27:15.272Z,100920.95
2018-05-08T12:29:42.905Z,100908.63
2018-05-08T12:32:10.479Z,100899.62
2018-05-08T12:34:38.372Z,100901.83
2018-05-08T12:37:06.183Z,100903.90
2018-05-08T12:39:33.961Z,100900.84
2018-05-08T12:42:01.611Z,100894.80
2018-05-08T12:44:29.252Z,100892.42
2018-05-08T12:46:56.871Z,100876.57
2018-05-08T12:49:24.446Z,100878.45
2018-05-08T12:51:52.114Z,100874.31
2018-05-08T12:54:19.692Z,100876.38
2018-05-08T12:56:47.313Z,100873.02
2018-05-08T12:59:15.021Z,100865.65
2018-05-08T13:01:42.696Z,100870.77
2018-05-08T13:04:10.337Z,100867.04
2018-05-08T13:06:37.925Z,100861.23
2018-05-08T13:09:06.444Z,100856.55
2018-05-08T13:11:34.225Z,100851.83
2018-05-08T13:14:01.851Z,100840.11
2018-05-08T13:16:29.496Z,100852.23
2018-05-08T13:18:57.084Z,100844.91
2018-05-08T13:21:24.745Z,100847.48
2018-05-08T13:23:52.607Z,100840.92
2018-05-08T13:26:20.255Z,100830.05
2018-05-08T13:28:47.826Z,100827.31
2018-05-08T13:31:15.467Z,100834.17
2018-05-08T13:33:43.405Z,100831.08
2018-05-08T13:36:11.081Z,100823.48
2018-05-08T13:38:38.734Z,100828.33
2018-05-08T13:41:06.319Z,100821.23
2018-05-08T13:43:34.001Z,100816.73
2018-05-08T13:46:01.670Z,100811.44
2018-05-08T13:48:29.290Z,100809.17
2018-05-08T13:50:57.243Z,100812.64
2018-05-08T13:53:24.804Z,100811.17
2018-05-08T13:55:52.368Z,100810.30
2018-05-08T13:58:20.030Z,100803.27
2018-05-08T14:00:47.633Z,100803.56
2018-05-08T14:03:15.219Z,100796.09
2018-05-08T14:05:42.779Z,100796.63
2018-05-08T14:08:10.783Z,100791.84
2018-05-08T14:10:38.574Z,100781.61
2018-05-08T14:13:06.468Z,100800.84
2018-05-08T14:15:33.800Z,100789.67
2018-05-08T14:18:01.991Z,100793.77
2018-05-08T14:20:29.783Z,100786.31
2018-05-08T14:22:57.353Z,100783.91
2018-05-08T14:25:25.238Z,100789.50
2018-05-08T14:27:52.869Z,100798.14
2018-05-08T14:30:20.432Z,100780.76
2018-05-08T14:32:48.070Z,100775.86
2018-05-08T14:35:15.975Z,100774.83
2018-05-08T14:37:44.287Z,100769.33
2018-05-08T14:40:11.985Z,100774.33
2018-05-08T14:42:39.534Z,100770.13
2018-05-08T14:45:07.090Z,100765.16
2018-05-08T14:47:34.792Z,100766.30
2018-05-08T14:50:02.357Z,100760.88
2018-05-08T14:52:29.913Z,100760.00
2018-05-08T14:54:57.573Z,100762.95
2018-05-08T14:57:25.292Z,100754.84
2018-05-08T14:59:53.039Z,100742.33
2018-05-08T15:02:20.752Z,100750.77
2018-05-08T15:04:48.547Z,100747.27
2018-05-08T15:07:16.356Z,100746.80
2018-05-08T15:09:43.974Z,100743.97
2018-05-08T15:12:11.542Z,100746.01
2018-05-08T15:14:39.090Z,100741.72
2018-05-08T15:17:07.088Z,100738.59
2018-05-08T15:19:34.635Z,100738.23
2018-05-08T15:22:02.549Z,100739.59
2018-05-08T15:24:30.143Z,100731.48
2018-05-08T15:26:57.750Z,100725.33
2018-05-08T15:29:25.401Z,100725.49
2018-05-08T15:31:53.489Z,100730.31
2018-05-08T15:34:21.080Z,100731.85
2018-05-08T15:36:48.878Z,100729.44
2018-05-08T15:39:16.445Z,100723.40
2018-05-08T15:41:44.050Z,100729.66
2018-05-08T15:44:11.686Z,100721.45
2018-05-08T15:46:39.622Z,100717.78
2018-05-08T15:49:07.232Z,100717.88
2018-05-08T15:51:34.779Z,100714.23
2018-05-08T15:54:02.417Z,100709.50
2018-05-08T15:56:30.084Z,100714.06
2018-05-08T15:58:57.640Z,100715.64
2018-05-08T16:01:25.340Z,100705.11
2018-05-08T16:03:53.227Z,100707.00
2018-05-08T16:06:20.835Z,100708.28
2018-05-08T16:08:48.593Z,100703.19
2018-05-08T16:11:16.149Z,100703.17
2018-05-08T16:13:43.704Z,100704.72
2018-05-08T16:16:11.294Z,100704.01
2018-05-08T16:18:39.373Z,100702.31
2018-05-08T16:21:07.203Z,100694.71
2018-05-08T16:23:34.833Z,100702.14
2018-05-08T16:26:02.590Z,100697.33
2018-05-08T16:28:30.219Z,100693.87
2018-05-08T16:30:58.020Z,100694.09
2018-05-08T16:33:25.595Z,100698.75
2018-05-08T16:35:53.175Z,100703.08
2018-05-08T16:38:20.902Z,100698.08
2018-05-08T16:40:48.463Z,100696.95
2018-05-08T16:43:16.047Z,100700.78
2018-05-08T16:45:43.702Z,100701.35
2018-05-08T16:48:11.296Z,100694.05
2018-05-08T16:50:39.200Z,100705.41
2018-05-08T16:53:06.750Z,100707.30
2018-05-08T16:55:34.325Z,100708.39
2018-05-08T16:58:01.941Z,100701.72
2018-05-08T17:00:29.607Z,100703.81
2018-05-08T17:02:57.195Z,100701.98
2018-05-08T17:05:24.770Z,100699.86
2018-05-08T17:07:52.374Z,100695.26
2018-05-08T17:10:20.189Z,100695.57
2018-05-08T17:12:48.480Z,100692.86
2018-05-08T17:15:16.037Z,100696.75
2018-05-08T17:17:43.848Z,100695.07
2018-05-08T17:20:11.463Z,100693.27
2018-05-08T17:22:39.364Z,100689.09
2018-05-08T17:25:06.939Z,100688.91
2018-05-08T17:27:34.518Z,100688.73
2018-05-08T17:30:02.276Z,100689.48
2018-05-08T17:32:29.853Z,100690.13
2018-05-08T17:34:57.421Z,100691.72
2018-05-08T17:37:25.227Z,100695.67
2018-05-08T17:39:52.961Z,100696.73
2018-05-08T17:42:20.522Z,100693.53
2018-05-08T17:44:48.079Z,100692.54
2018-05-08T17:47:15.668Z,100696.00
2018-05-08T17:49:43.481Z,100694.05
2018-05-08T17:52:11.241Z,100696.59
2018-05-08T17:54:38.804Z,100701.03
2018-05-08T17:57:06.438Z,100695.22
2018-05-08T17:59:34.004Z,100701.03
2018-05-08T18:02:07.270Z,100690.46
2018-05-08T18:04:34.899Z,100697.20
2018-05-08T18:07:02.522Z,100700.21
2018-05-08T18:09:30.543Z,100693.92
2018-05-08T18:11:58.358Z,100693.89
2018-05-08T18:14:25.981Z,100697.83
2018-05-08T18:16:53.583Z,100700.60
2018-05-08T18:19:21.181Z,100694.75
2018-05-08T18:21:48.748Z,100696.90
2018-05-08T18:24:16.331Z,100699.77
2018-05-08T18:26:43.897Z,100702.15
2018-05-08T18:29:11.843Z,100709.09
2018-05-08T18:31:39.439Z,100699.40
2018-05-08T18:34:07.004Z,100706.30
2018-05-08T18:36:34.786Z,100700.80
2018-05-08T18:39:02.393Z,100702.22
2018-05-08T18:41:30.102Z,100694.73
2018-05-08T18:43:57.750Z,100695.22
2018-05-08T18:46:25.389Z,100700.86
2018-05-08T18:48:53.044Z,100697.36
2018-05-08T18:51:20.616Z,100696.68
2018-05-08T18:53:48.283Z,100703.17
2018-05-08T18:56:16.136Z,100696.55
2018-05-08T18:58:43.773Z,100699.73
2018-05-08T19:01:11.444Z,100702.03
2018-05-08T19:03:39.049Z,100705.75
2018-05-08T19:06:06.612Z,100710.94
2018-05-08T19:08:34.282Z,100715.20
2018-05-08T19:11:07.558Z,100711.77
2018-05-08T19:13:35.112Z,100717.63
2018-05-08T19:16:03.830Z,100720.06
2018-05-08T19:18:36.992Z,100717.41
2018-05-08T19:21:04.860Z,100722.47
2018-05-08T19:23:32.555Z,100718.81
2018-05-08T19:26:00.123Z,100721.84
2018-05-08T19:28:33.091Z,100724.05
2018-05-08T19:31:00.643Z,100721.48
2018-05-08T19:33:28.237Z,100725.50
2018-05-08T19:36:01.422Z,100725.95
2018-05-08T19:38:29.248Z,100720.82
2018-05-08T19:40:56.877Z,100722.41
2018-05-08T19:43:24.455Z,100723.23
2018-05-08T19:45:52.097Z,100731.98
2018-05-08T19:48:19.642Z,100734.16
2018-05-08T19:50:47.733Z,100740.91
2018-05-08T19:53:15.287Z,100740.50
2018-05-08T19:55:42.860Z,100736.75
2018-05-08T19:58:10.450Z,100740.52
2018-05-08T20:00:38.091Z,100731.83
2018-05-08T20:03:05.756Z,100734.61
2018-05-08T20:05:33.351Z,100736.59
2018-05-08T20:08:01.824Z,100736.59
2018-05-08T20:10:29.399Z,100731.22
2018-05-08T20:12:57.212Z,100735.95
2018-05-08T20:15:24.823Z,100733.20
2018-05-08T20:17:52.382Z,100731.42
2018-05-08T20:20:19.937Z,100732.98
2018-05-08T20:22:47.602Z,100735.36
2018-05-08T20:25:15.178Z,100740.47
2018-05-08T20:27:42.813Z,100741.07
2018-05-08T20:30:10.375Z,100732.94
2018-05-08T20:32:38.034Z,100732.13
2018-05-08T20:35:05.624Z,100733.70
2018-05-08T20:37:33.181Z,100726.93
2018-05-08T20:40:00.940Z,100729.26
2018-05-08T20:42:28.501Z,100729.61
2018-05-08T20:44:56.090Z,100727.02
2018-05-08T20:47:23.692Z,100727.94
2018-05-08T20:49:51.850Z,100725.37
2018-05-08T20:52:19.550Z,100725.77
2018-05-08T20:54:47.111Z,100731.24
2018-05-08T20:57:14.913Z,100726.67
2018-05-08T20:59:42.528Z,100728.19
2018-05-08T21:02:10.082Z,100732.06
2018-05-08T21:04:37.748Z,100734.59
2018-05-08T21:07:05.313Z,100729.04
2018-05-08T21:09:33.136Z,100721.52
2018-05-08T21:12:00.928Z,100721.89
2018-05-08T21:14:28.588Z,100723.04
2018-05-08T21:16:56.220Z,100725.17
2018-05-08T21:19:24.087Z,100720.81
2018-05-08T21:21:51.986Z,100721.16
2018-05-08T21:24:19.588Z,100726.84
2018-05-08T21:26:47.208Z,100731.72
2018-05-08T21:29:20.717Z,100722.42
2018-05-08T21:31:48.349Z,100722.95
2018-05-08T21:34:15.934Z,100726.46
2018-05-08T21:36:43.526Z,100727.63
2018-05-08T21:39:11.085Z,100725.77
2018-05-08T21:41:38.698Z,100720.60
2018-05-08T21:44:06.263Z,100718.94
2018-05-08T21:46:34.159Z,100723.00
2018-05-08T21:49:01.771Z,100720.80
2018-05-08T21:51:29.335Z,100720.95
2018-05-08T21:53:56.916Z,100719.73
2018-05-08T21:56:24.535Z,100718.30
2018-05-08T21:58:52.226Z,100718.25
2018-05-08T22:01:20.171Z,100716.23
2018-05-08T22:03:47.796Z,100717.34
2018-05-08T22:06:15.532Z,100722.77
2018-05-08T22:08:43.079Z,100726.51
2018-05-08T22:11:10.668Z,100723.30
2018-05-08T22:13:38.551Z,100721.03
2018-05-08T22:16:06.144Z,100725.52
2018-05-08T22:18:33.843Z,100729.36
2018-05-08T22:21:01.503Z,100719.48
2018-05-08T22:23:29.083Z,100720.40
2018-05-08T22:25:56.731Z,100715.59
2018-05-08T22:28:24.459Z,100715.17
2018-05-08T22:30:52.045Z,100713.14
2018-05-08T22:33:19.641Z,100712.06
2018-05-08T22:35:47.573Z,100708.88
2018-05-08T22:38:15.191Z,100711.98
2018-05-08T22:40:42.759Z,100713.86
2018-05-08T22:43:10.393Z,100706.95
2018-05-08T22:45:37.966Z,100710.08
2018-05-08T22:48:05.611Z,100708.80
2018-05-08T22:50:33.250Z,100708.53
2018-05-08T22:53:00.867Z,100705.53
2018-05-08T22:55:28.563Z,100697.41
2018-05-08T22:57:56.190Z,100697.94
2018-05-08T23:00:23.907Z,100703.41
2018-05-08T23:02:51.651Z,100697.38
2018-05-08T23:05:19.271Z,100696.50
2018-05-08T23:07:46.837Z,100693.88
2018-05-08T23:10:14.644Z,100697.78
2018-05-08T23:12:42.213Z,100692.99
2018-05-08T23:15:09.816Z,100693.68
2018-05-08T23:17:37.603Z,100692.83
2018-05-08T23:20:05.157Z,100697.11
2018-05-08T23:22:32.781Z,100689.02
2018-05-08T23:25:00.417Z,100682.30
2018-05-08T23:27:28.021Z,100684.94
2018-05-08T23:29:55.592Z,100679.52
2018-05-08T23:32:23.220Z,100678.27
2018-05-08T23:34:50.848Z,100684.52
2018-05-08T23:37:18.837Z,100683.52
2018-05-08T23:39:46.467Z,100675.79
2018-05-08T23:42:14.170Z,100680.84
2018-05-08T23:44:41.789Z,100671.19
2018-05-08T23:47:09.680Z,100664.66
2018-05-08T23:49:37.622Z,100663.95
2018-05-08T23:52:05.162Z,100664.92
2018-05-08T23:54:32.755Z,100666.41
2018-05-08T23:57:00.472Z,100663.63
2018-05-08T23:59:28.095Z,100665.17
